sensor_id;sensor_type;location;lat;lon;timestamp;P1;durP1;ratioP1;P2;durP2;ratioP2
79076;SDS011;68477;42.698;23.342;2023-04-22T00:01:35;15.82;;;10.10;;
79076;SDS011;68477;42.698;23.342;2023-04-22T00:04:00;16.90;;;9.95;;
79076;SDS011;68477;42.698;23.342;2023-04-22T00:06:26;18.38;;;10.07;;
79076;SDS011;68477;42.698;23.342;2023-04-22T00:08:52;17.63;;;10.80;;
79076;SDS011;68477;42.698;23.342;2023-04-22T00:11:17;17.42;;;9.52;;
79076;SDS011;68477;42.698;23.342;2023-04-22T00:13:42;16.95;;;10.20;;
79076;SDS011;68477;42.698;23.342;2023-04-22T00:16:09;18.67;;;10.15;;
79076;SDS011;68477;42.698;23.342;2023-04-22T00:18:34;16.42;;;10.00;;
79076;SDS011;68477;42.698;23.342;2023-04-22T00:21:00;18.38;;;9.93;;
79076;SDS011;68477;42.698;23.342;2023-04-22T00:23:26;17.50;;;8.82;;
79076;SDS011;68477;42.698;23.342;2023-04-22T00:25:51;15.68;;;9.13;;
79076;SDS011;68477;42.698;23.342;2023-04-22T00:28:17;16.08;;;9.93;;
79076;SDS011;68477;42.698;23.342;2023-04-22T00:30:42;17.83;;;10.38;;
79076;SDS011;68477;42.698;23.342;2023-04-22T00:33:08;20.92;;;10.57;;
79076;SDS011;68477;42.698;23.342;2023-04-22T00:35:33;25.33;;;13.25;;
79076;SDS011;68477;42.698;23.342;2023-04-22T00:37:59;20.10;;;11.75;;
79076;SDS011;68477;42.698;23.342;2023-04-22T00:40:25;20.65;;;11.80;;
79076;SDS011;68477;42.698;23.342;2023-04-22T00:42:50;41.10;;;12.85;;
79076;SDS011;68477;42.698;23.342;2023-04-22T00:45:16;30.75;;;12.82;;
79076;SDS011;68477;42.698;23.342;2023-04-22T00:47:43;19.15;;;12.65;;
79076;SDS011;68477;42.698;23.342;2023-04-22T00:50:11;18.95;;;11.60;;
79076;SDS011;68477;42.698;23.342;2023-04-22T00:52:36;19.13;;;11.52;;
79076;SDS011;68477;42.698;23.342;2023-04-22T00:55:02;21.75;;;12.90;;
79076;SDS011;68477;42.698;23.342;2023-04-22T00:57:28;21.25;;;13.00;;
79076;SDS011;68477;42.698;23.342;2023-04-22T00:59:55;24.48;;;13.20;;
79076;SDS011;68477;42.698;23.342;2023-04-22T01:02:21;27.42;;;14.18;;
79076;SDS011;68477;42.698;23.342;2023-04-22T01:04:47;25.88;;;14.27;;
79076;SDS011;68477;42.698;23.342;2023-04-22T01:07:12;23.05;;;13.27;;
79076;SDS011;68477;42.698;23.342;2023-04-22T01:09:38;23.40;;;14.30;;
79076;SDS011;68477;42.698;23.342;2023-04-22T01:12:05;21.90;;;14.07;;
79076;SDS011;68477;42.698;23.342;2023-04-22T01:14:30;28.13;;;13.73;;
79076;SDS011;68477;42.698;23.342;2023-04-22T01:16:56;22.33;;;13.38;;
79076;SDS011;68477;42.698;23.342;2023-04-22T01:19:22;25.10;;;14.52;;
79076;SDS011;68477;42.698;23.342;2023-04-22T01:21:49;28.83;;;14.20;;
79076;SDS011;68477;42.698;23.342;2023-04-22T01:24:15;25.50;;;13.98;;
79076;SDS011;68477;42.698;23.342;2023-04-22T01:26:41;25.33;;;13.98;;
79076;SDS011;68477;42.698;23.342;2023-04-22T01:29:07;31.20;;;14.75;;
79076;SDS011;68477;42.698;23.342;2023-04-22T01:31:33;27.52;;;13.32;;
79076;SDS011;68477;42.698;23.342;2023-04-22T01:33:58;23.52;;;12.77;;
79076;SDS011;68477;42.698;23.342;2023-04-22T01:36:24;21.42;;;12.45;;
79076;SDS011;68477;42.698;23.342;2023-04-22T01:38:49;22.45;;;12.82;;
79076;SDS011;68477;42.698;23.342;2023-04-22T01:41:15;23.85;;;12.77;;
79076;SDS011;68477;42.698;23.342;2023-04-22T01:43:41;20.38;;;12.90;;
79076;SDS011;68477;42.698;23.342;2023-04-22T01:46:08;19.58;;;12.75;;
79076;SDS011;68477;42.698;23.342;2023-04-22T01:48:34;21.73;;;11.38;;
79076;SDS011;68477;42.698;23.342;2023-04-22T01:50:59;21.65;;;11.80;;
79076;SDS011;68477;42.698;23.342;2023-04-22T01:53:26;20.02;;;11.75;;
79076;SDS011;68477;42.698;23.342;2023-04-22T01:55:51;17.33;;;11.35;;
79076;SDS011;68477;42.698;23.342;2023-04-22T01:58:17;21.23;;;11.68;;
79076;SDS011;68477;42.698;23.342;2023-04-22T02:00:42;22.02;;;11.52;;
79076;SDS011;68477;42.698;23.342;2023-04-22T02:03:08;20.80;;;11.18;;
79076;SDS011;68477;42.698;23.342;2023-04-22T02:05:33;20.05;;;9.77;;
79076;SDS011;68477;42.698;23.342;2023-04-22T02:08:01;17.15;;;10.07;;
79076;SDS011;68477;42.698;23.342;2023-04-22T02:10:26;15.15;;;9.98;;
79076;SDS011;68477;42.698;23.342;2023-04-22T02:12:52;13.23;;;9.45;;
79076;SDS011;68477;42.698;23.342;2023-04-22T02:15:17;17.17;;;9.82;;
79076;SDS011;68477;42.698;23.342;2023-04-22T02:17:43;13.68;;;9.60;;
79076;SDS011;68477;42.698;23.342;2023-04-22T02:20:08;14.25;;;9.07;;
79076;SDS011;68477;42.698;23.342;2023-04-22T02:22:35;19.23;;;9.25;;
79076;SDS011;68477;42.698;23.342;2023-04-22T02:25:01;23.90;;;11.27;;
79076;SDS011;68477;42.698;23.342;2023-04-22T02:27:27;15.32;;;9.55;;
79076;SDS011;68477;42.698;23.342;2023-04-22T02:29:54;18.05;;;11.10;;
79076;SDS011;68477;42.698;23.342;2023-04-22T02:32:19;16.75;;;10.05;;
79076;SDS011;68477;42.698;23.342;2023-04-22T02:34:45;19.58;;;11.52;;
79076;SDS011;68477;42.698;23.342;2023-04-22T02:37:11;21.88;;;12.13;;
79076;SDS011;68477;42.698;23.342;2023-04-22T02:39:37;20.73;;;11.25;;
79076;SDS011;68477;42.698;23.342;2023-04-22T02:42:02;20.63;;;11.50;;
79076;SDS011;68477;42.698;23.342;2023-04-22T02:44:28;18.58;;;11.25;;
79076;SDS011;68477;42.698;23.342;2023-04-22T02:46:53;19.83;;;11.40;;
79076;SDS011;68477;42.698;23.342;2023-04-22T02:49:19;18.20;;;11.38;;
79076;SDS011;68477;42.698;23.342;2023-04-22T02:51:45;17.98;;;11.45;;
79076;SDS011;68477;42.698;23.342;2023-04-22T02:54:10;18.25;;;10.93;;
79076;SDS011;68477;42.698;23.342;2023-04-22T02:56:36;19.85;;;12.80;;
79076;SDS011;68477;42.698;23.342;2023-04-22T02:59:01;16.85;;;11.13;;
79076;SDS011;68477;42.698;23.342;2023-04-22T03:01:26;21.35;;;12.10;;
79076;SDS011;68477;42.698;23.342;2023-04-22T03:03:52;24.60;;;12.05;;
79076;SDS011;68477;42.698;23.342;2023-04-22T03:06:17;20.73;;;11.88;;
79076;SDS011;68477;42.698;23.342;2023-04-22T03:08:43;16.88;;;11.07;;
79076;SDS011;68477;42.698;23.342;2023-04-22T03:11:08;20.60;;;11.93;;
79076;SDS011;68477;42.698;23.342;2023-04-22T03:13:34;21.20;;;12.07;;
79076;SDS011;68477;42.698;23.342;2023-04-22T03:15:59;19.70;;;11.88;;
79076;SDS011;68477;42.698;23.342;2023-04-22T03:18:25;19.63;;;11.50;;
79076;SDS011;68477;42.698;23.342;2023-04-22T03:20:50;25.45;;;11.40;;
79076;SDS011;68477;42.698;23.342;2023-04-22T03:23:15;16.13;;;11.18;;
79076;SDS011;68477;42.698;23.342;2023-04-22T03:25:41;21.30;;;11.80;;
79076;SDS011;68477;42.698;23.342;2023-04-22T03:28:07;20.33;;;11.27;;
79076;SDS011;68477;42.698;23.342;2023-04-22T03:30:32;18.00;;;10.82;;
79076;SDS011;68477;42.698;23.342;2023-04-22T03:32:57;18.35;;;11.32;;
79076;SDS011;68477;42.698;23.342;2023-04-22T03:35:23;19.52;;;11.27;;
79076;SDS011;68477;42.698;23.342;2023-04-22T03:37:48;26.20;;;11.95;;
79076;SDS011;68477;42.698;23.342;2023-04-22T03:40:14;20.65;;;11.43;;
79076;SDS011;68477;42.698;23.342;2023-04-22T03:42:40;19.38;;;11.88;;
79076;SDS011;68477;42.698;23.342;2023-04-22T03:45:05;21.90;;;12.27;;
79076;SDS011;68477;42.698;23.342;2023-04-22T03:47:31;19.75;;;12.07;;
79076;SDS011;68477;42.698;23.342;2023-04-22T03:49:56;23.60;;;11.65;;
79076;SDS011;68477;42.698;23.342;2023-04-22T03:52:22;18.23;;;11.80;;
79076;SDS011;68477;42.698;23.342;2023-04-22T03:54:47;20.08;;;11.23;;
79076;SDS011;68477;42.698;23.342;2023-04-22T03:57:13;19.90;;;11.90;;
79076;SDS011;68477;42.698;23.342;2023-04-22T03:59:38;18.45;;;10.70;;
79076;SDS011;68477;42.698;23.342;2023-04-22T04:02:04;17.63;;;10.93;;
79076;SDS011;68477;42.698;23.342;2023-04-22T04:04:31;19.17;;;11.50;;
79076;SDS011;68477;42.698;23.342;2023-04-22T04:06:57;23.70;;;12.35;;
79076;SDS011;68477;42.698;23.342;2023-04-22T04:09:22;24.75;;;13.60;;
79076;SDS011;68477;42.698;23.342;2023-04-22T04:11:48;20.65;;;12.15;;
79076;SDS011;68477;42.698;23.342;2023-04-22T04:14:14;17.90;;;12.25;;
79076;SDS011;68477;42.698;23.342;2023-04-22T04:16:40;24.45;;;13.43;;
79076;SDS011;68477;42.698;23.342;2023-04-22T04:19:06;22.77;;;13.13;;
79076;SDS011;68477;42.698;23.342;2023-04-22T04:21:31;20.48;;;12.52;;
79076;SDS011;68477;42.698;23.342;2023-04-22T04:24:01;21.58;;;11.15;;
79076;SDS011;68477;42.698;23.342;2023-04-22T04:26:27;23.15;;;12.55;;
79076;SDS011;68477;42.698;23.342;2023-04-22T04:28:52;27.65;;;12.85;;
79076;SDS011;68477;42.698;23.342;2023-04-22T04:31:19;20.70;;;12.38;;
79076;SDS011;68477;42.698;23.342;2023-04-22T04:33:45;20.15;;;11.80;;
79076;SDS011;68477;42.698;23.342;2023-04-22T04:36:11;16.95;;;10.52;;
79076;SDS011;68477;42.698;23.342;2023-04-22T04:38:38;19.35;;;11.10;;
79076;SDS011;68477;42.698;23.342;2023-04-22T04:41:03;18.23;;;12.75;;
79076;SDS011;68477;42.698;23.342;2023-04-22T04:43:29;20.55;;;12.02;;
79076;SDS011;68477;42.698;23.342;2023-04-22T04:45:55;22.70;;;12.95;;
79076;SDS011;68477;42.698;23.342;2023-04-22T04:48:22;23.70;;;11.80;;
79076;SDS011;68477;42.698;23.342;2023-04-22T04:50:49;20.85;;;12.90;;
79076;SDS011;68477;42.698;23.342;2023-04-22T04:53:17;25.52;;;13.00;;
79076;SDS011;68477;42.698;23.342;2023-04-22T04:55:44;29.48;;;13.70;;
79076;SDS011;68477;42.698;23.342;2023-04-22T04:58:09;19.48;;;12.20;;
79076;SDS011;68477;42.698;23.342;2023-04-22T05:00:35;22.63;;;11.45;;
79076;SDS011;68477;42.698;23.342;2023-04-22T05:03:00;19.08;;;10.77;;
79076;SDS011;68477;42.698;23.342;2023-04-22T05:05:26;20.02;;;11.77;;
79076;SDS011;68477;42.698;23.342;2023-04-22T05:07:51;16.45;;;10.13;;
79076;SDS011;68477;42.698;23.342;2023-04-22T05:10:18;22.02;;;10.95;;
79076;SDS011;68477;42.698;23.342;2023-04-22T05:12:44;18.50;;;9.80;;
79076;SDS011;68477;42.698;23.342;2023-04-22T05:15:11;18.88;;;11.18;;
79076;SDS011;68477;42.698;23.342;2023-04-22T05:17:37;17.23;;;10.43;;
79076;SDS011;68477;42.698;23.342;2023-04-22T05:20:03;16.17;;;10.80;;
79076;SDS011;68477;42.698;23.342;2023-04-22T05:22:28;18.30;;;10.05;;
79076;SDS011;68477;42.698;23.342;2023-04-22T05:24:54;12.85;;;8.77;;
79076;SDS011;68477;42.698;23.342;2023-04-22T05:27:19;13.95;;;9.70;;
79076;SDS011;68477;42.698;23.342;2023-04-22T05:29:45;19.17;;;8.93;;
79076;SDS011;68477;42.698;23.342;2023-04-22T05:32:10;15.68;;;9.23;;
79076;SDS011;68477;42.698;23.342;2023-04-22T05:34:36;15.48;;;8.90;;
79076;SDS011;68477;42.698;23.342;2023-04-22T05:37:02;12.68;;;8.70;;
79076;SDS011;68477;42.698;23.342;2023-04-22T05:39:27;15.38;;;9.73;;
79076;SDS011;68477;42.698;23.342;2023-04-22T05:41:53;16.17;;;9.80;;
79076;SDS011;68477;42.698;23.342;2023-04-22T05:44:19;17.23;;;9.45;;
79076;SDS011;68477;42.698;23.342;2023-04-22T05:46:45;19.05;;;9.95;;
79076;SDS011;68477;42.698;23.342;2023-04-22T05:49:11;16.58;;;10.35;;
79076;SDS011;68477;42.698;23.342;2023-04-22T05:51:36;15.93;;;9.73;;
79076;SDS011;68477;42.698;23.342;2023-04-22T05:54:02;19.02;;;9.80;;
79076;SDS011;68477;42.698;23.342;2023-04-22T05:56:27;17.10;;;10.02;;
79076;SDS011;68477;42.698;23.342;2023-04-22T05:58:52;14.73;;;9.23;;
79076;SDS011;68477;42.698;23.342;2023-04-22T06:01:18;14.50;;;9.75;;
79076;SDS011;68477;42.698;23.342;2023-04-22T06:03:43;13.95;;;9.32;;
79076;SDS011;68477;42.698;23.342;2023-04-22T06:06:09;19.52;;;9.85;;
79076;SDS011;68477;42.698;23.342;2023-04-22T06:08:34;14.82;;;9.65;;
79076;SDS011;68477;42.698;23.342;2023-04-22T06:11:00;13.15;;;9.13;;
79076;SDS011;68477;42.698;23.342;2023-04-22T06:13:25;11.15;;;7.53;;
79076;SDS011;68477;42.698;23.342;2023-04-22T06:15:51;15.93;;;8.10;;
79076;SDS011;68477;42.698;23.342;2023-04-22T06:18:17;13.82;;;9.40;;
79076;SDS011;68477;42.698;23.342;2023-04-22T06:20:42;14.23;;;9.07;;
79076;SDS011;68477;42.698;23.342;2023-04-22T06:23:08;14.23;;;8.38;;
79076;SDS011;68477;42.698;23.342;2023-04-22T06:25:35;13.25;;;8.35;;
79076;SDS011;68477;42.698;23.342;2023-04-22T06:28:00;16.75;;;8.75;;
79076;SDS011;68477;42.698;23.342;2023-04-22T06:30:26;15.50;;;8.70;;
79076;SDS011;68477;42.698;23.342;2023-04-22T06:32:51;16.58;;;9.65;;
79076;SDS011;68477;42.698;23.342;2023-04-22T06:35:19;19.17;;;10.88;;
79076;SDS011;68477;42.698;23.342;2023-04-22T06:37:45;14.52;;;9.52;;
79076;SDS011;68477;42.698;23.342;2023-04-22T06:40:11;14.30;;;8.68;;
79076;SDS011;68477;42.698;23.342;2023-04-22T06:42:36;12.90;;;8.15;;
79076;SDS011;68477;42.698;23.342;2023-04-22T06:45:05;9.75;;;7.38;;
79076;SDS011;68477;42.698;23.342;2023-04-22T06:47:33;13.85;;;7.82;;
79076;SDS011;68477;42.698;23.342;2023-04-22T06:49:58;9.52;;;7.13;;
79076;SDS011;68477;42.698;23.342;2023-04-22T06:52:24;14.05;;;8.60;;
79076;SDS011;68477;42.698;23.342;2023-04-22T06:54:49;18.20;;;8.77;;
79076;SDS011;68477;42.698;23.342;2023-04-22T06:57:15;12.10;;;7.90;;
79076;SDS011;68477;42.698;23.342;2023-04-22T06:59:40;15.07;;;8.90;;
79076;SDS011;68477;42.698;23.342;2023-04-22T07:02:06;11.60;;;7.93;;
79076;SDS011;68477;42.698;23.342;2023-04-22T07:04:32;12.93;;;8.25;;
79076;SDS011;68477;42.698;23.342;2023-04-22T07:06:58;11.30;;;8.55;;
79076;SDS011;68477;42.698;23.342;2023-04-22T07:09:23;9.65;;;7.10;;
79076;SDS011;68477;42.698;23.342;2023-04-22T07:11:48;15.57;;;7.65;;
79076;SDS011;68477;42.698;23.342;2023-04-22T07:14:14;15.40;;;9.20;;
79076;SDS011;68477;42.698;23.342;2023-04-22T07:16:39;18.65;;;8.73;;
79076;SDS011;68477;42.698;23.342;2023-04-22T07:19:05;15.70;;;7.88;;
79076;SDS011;68477;42.698;23.342;2023-04-22T07:21:31;13.52;;;8.23;;
79076;SDS011;68477;42.698;23.342;2023-04-22T07:23:57;12.50;;;7.38;;
79076;SDS011;68477;42.698;23.342;2023-04-22T07:26:22;21.92;;;10.90;;
79076;SDS011;68477;42.698;23.342;2023-04-22T07:28:48;14.48;;;8.70;;
79076;SDS011;68477;42.698;23.342;2023-04-22T07:31:14;15.35;;;7.68;;
79076;SDS011;68477;42.698;23.342;2023-04-22T07:33:39;20.98;;;8.18;;
79076;SDS011;68477;42.698;23.342;2023-04-22T07:36:05;13.77;;;8.38;;
79076;SDS011;68477;42.698;23.342;2023-04-22T07:38:31;11.77;;;6.88;;
79076;SDS011;68477;42.698;23.342;2023-04-22T07:40:56;12.45;;;7.20;;
79076;SDS011;68477;42.698;23.342;2023-04-22T07:43:22;12.43;;;6.88;;
79076;SDS011;68477;42.698;23.342;2023-04-22T07:45:47;12.98;;;6.45;;
79076;SDS011;68477;42.698;23.342;2023-04-22T07:48:13;9.95;;;6.90;;
79076;SDS011;68477;42.698;23.342;2023-04-22T07:50:38;11.82;;;5.90;;
79076;SDS011;68477;42.698;23.342;2023-04-22T07:53:04;13.93;;;6.65;;
79076;SDS011;68477;42.698;23.342;2023-04-22T07:55:30;11.52;;;6.68;;
79076;SDS011;68477;42.698;23.342;2023-04-22T07:57:55;9.25;;;5.35;;
79076;SDS011;68477;42.698;23.342;2023-04-22T08:00:21;10.10;;;5.10;;
79076;SDS011;68477;42.698;23.342;2023-04-22T08:02:46;12.57;;;5.80;;
79076;SDS011;68477;42.698;23.342;2023-04-22T08:05:13;9.70;;;5.40;;
79076;SDS011;68477;42.698;23.342;2023-04-22T08:07:38;9.90;;;5.30;;
79076;SDS011;68477;42.698;23.342;2023-04-22T08:10:04;6.88;;;4.82;;
79076;SDS011;68477;42.698;23.342;2023-04-22T08:12:30;8.40;;;5.45;;
79076;SDS011;68477;42.698;23.342;2023-04-22T08:14:56;11.18;;;4.88;;
79076;SDS011;68477;42.698;23.342;2023-04-22T08:17:22;9.68;;;5.10;;
79076;SDS011;68477;42.698;23.342;2023-04-22T08:19:47;6.97;;;4.88;;
79076;SDS011;68477;42.698;23.342;2023-04-22T08:22:14;9.90;;;4.82;;
79076;SDS011;68477;42.698;23.342;2023-04-22T08:24:39;8.68;;;4.32;;
79076;SDS011;68477;42.698;23.342;2023-04-22T08:27:05;8.48;;;4.68;;
79076;SDS011;68477;42.698;23.342;2023-04-22T08:29:31;6.50;;;4.25;;
79076;SDS011;68477;42.698;23.342;2023-04-22T08:31:57;5.85;;;4.60;;
79076;SDS011;68477;42.698;23.342;2023-04-22T08:34:23;8.43;;;4.68;;
79076;SDS011;68477;42.698;23.342;2023-04-22T08:36:50;12.18;;;4.72;;
79076;SDS011;68477;42.698;23.342;2023-04-22T08:39:15;8.05;;;4.93;;
79076;SDS011;68477;42.698;23.342;2023-04-22T08:41:42;12.65;;;5.47;;
79076;SDS011;68477;42.698;23.342;2023-04-22T08:44:09;12.30;;;4.90;;
79076;SDS011;68477;42.698;23.342;2023-04-22T08:46:35;7.82;;;4.25;;
79076;SDS011;68477;42.698;23.342;2023-04-22T08:49:02;8.13;;;4.50;;
79076;SDS011;68477;42.698;23.342;2023-04-22T08:51:28;9.57;;;4.05;;
79076;SDS011;68477;42.698;23.342;2023-04-22T08:53:56;7.53;;;4.30;;
79076;SDS011;68477;42.698;23.342;2023-04-22T08:56:21;11.52;;;4.80;;
79076;SDS011;68477;42.698;23.342;2023-04-22T08:58:48;9.35;;;4.57;;
79076;SDS011;68477;42.698;23.342;2023-04-22T09:01:15;8.32;;;4.53;;
79076;SDS011;68477;42.698;23.342;2023-04-22T09:03:41;6.28;;;4.75;;
79076;SDS011;68477;42.698;23.342;2023-04-22T09:06:08;7.53;;;4.00;;
79076;SDS011;68477;42.698;23.342;2023-04-22T09:08:35;12.70;;;5.05;;
79076;SDS011;68477;42.698;23.342;2023-04-22T09:11:01;12.75;;;4.55;;
79076;SDS011;68477;42.698;23.342;2023-04-22T09:13:27;10.38;;;4.82;;
79076;SDS011;68477;42.698;23.342;2023-04-22T09:15:53;7.75;;;4.78;;
79076;SDS011;68477;42.698;23.342;2023-04-22T09:18:19;8.65;;;5.07;;
79076;SDS011;68477;42.698;23.342;2023-04-22T09:20:47;9.20;;;4.53;;
79076;SDS011;68477;42.698;23.342;2023-04-22T09:23:14;7.85;;;4.95;;
79076;SDS011;68477;42.698;23.342;2023-04-22T09:25:40;10.07;;;5.35;;
79076;SDS011;68477;42.698;23.342;2023-04-22T09:28:10;6.47;;;4.55;;
79076;SDS011;68477;42.698;23.342;2023-04-22T09:30:36;10.32;;;5.10;;
79076;SDS011;68477;42.698;23.342;2023-04-22T09:33:05;9.88;;;5.25;;
79076;SDS011;68477;42.698;23.342;2023-04-22T09:35:32;7.28;;;4.65;;
79076;SDS011;68477;42.698;23.342;2023-04-22T09:38:00;7.63;;;4.90;;
79076;SDS011;68477;42.698;23.342;2023-04-22T09:40:28;8.05;;;4.85;;
79076;SDS011;68477;42.698;23.342;2023-04-22T09:42:57;9.63;;;4.50;;
79076;SDS011;68477;42.698;23.342;2023-04-22T09:50:36;8.70;;;4.53;;
79076;SDS011;68477;42.698;23.342;2023-04-22T09:53:04;6.53;;;4.00;;
79076;SDS011;68477;42.698;23.342;2023-04-22T09:55:34;18.50;;;3.88;;
79076;SDS011;68477;42.698;23.342;2023-04-22T09:58:05;6.13;;;2.95;;
79076;SDS011;68477;42.698;23.342;2023-04-22T10:00:35;3.85;;;2.65;;
79076;SDS011;68477;42.698;23.342;2023-04-22T10:03:04;5.70;;;2.58;;
79076;SDS011;68477;42.698;23.342;2023-04-22T10:05:31;4.60;;;2.45;;
79076;SDS011;68477;42.698;23.342;2023-04-22T10:08:04;3.40;;;2.33;;
79076;SDS011;68477;42.698;23.342;2023-04-22T10:10:31;8.10;;;2.50;;
79076;SDS011;68477;42.698;23.342;2023-04-22T10:12:58;11.13;;;2.50;;
79076;SDS011;68477;42.698;23.342;2023-04-22T10:15:24;4.68;;;2.50;;
79076;SDS011;68477;42.698;23.342;2023-04-22T10:17:51;4.60;;;2.63;;
79076;SDS011;68477;42.698;23.342;2023-04-22T10:20:19;4.18;;;2.40;;
79076;SDS011;68477;42.698;23.342;2023-04-22T10:22:45;5.28;;;2.10;;
79076;SDS011;68477;42.698;23.342;2023-04-22T10:25:12;6.00;;;2.35;;
79076;SDS011;68477;42.698;23.342;2023-04-22T10:27:51;5.45;;;2.50;;
79076;SDS011;68477;42.698;23.342;2023-04-22T10:30:28;3.22;;;2.10;;
79076;SDS011;68477;42.698;23.342;2023-04-22T10:32:54;6.00;;;2.35;;
79076;SDS011;68477;42.698;23.342;2023-04-22T10:35:25;7.13;;;2.50;;
79076;SDS011;68477;42.698;23.342;2023-04-22T10:37:55;4.05;;;1.90;;
79076;SDS011;68477;42.698;23.342;2023-04-22T10:40:21;4.28;;;2.05;;
79076;SDS011;68477;42.698;23.342;2023-04-22T10:42:51;3.42;;;1.90;;
79076;SDS011;68477;42.698;23.342;2023-04-22T10:45:19;3.15;;;1.95;;
79076;SDS011;68477;42.698;23.342;2023-04-22T10:47:49;5.70;;;2.20;;
79076;SDS011;68477;42.698;23.342;2023-04-22T10:52:54;2.65;;;1.98;;
79076;SDS011;68477;42.698;23.342;2023-04-22T10:55:21;6.38;;;2.60;;
79076;SDS011;68477;42.698;23.342;2023-04-22T10:57:48;5.13;;;2.42;;
79076;SDS011;68477;42.698;23.342;2023-04-22T11:02:45;6.80;;;3.47;;
79076;SDS011;68477;42.698;23.342;2023-04-22T11:05:21;5.22;;;2.50;;
79076;SDS011;68477;42.698;23.342;2023-04-22T11:07:49;7.55;;;2.40;;
79076;SDS011;68477;42.698;23.342;2023-04-22T11:10:30;4.40;;;2.90;;
79076;SDS011;68477;42.698;23.342;2023-04-22T11:13:04;4.93;;;2.42;;
79076;SDS011;68477;42.698;23.342;2023-04-22T11:15:31;3.50;;;2.63;;
79076;SDS011;68477;42.698;23.342;2023-04-22T11:17:59;5.35;;;2.35;;
79076;SDS011;68477;42.698;23.342;2023-04-22T11:20:24;4.30;;;2.35;;
79076;SDS011;68477;42.698;23.342;2023-04-22T11:22:53;5.75;;;2.80;;
79076;SDS011;68477;42.698;23.342;2023-04-22T11:25:20;4.50;;;2.35;;
79076;SDS011;68477;42.698;23.342;2023-04-22T11:27:47;4.55;;;2.30;;
79076;SDS011;68477;42.698;23.342;2023-04-22T11:30:14;4.80;;;2.42;;
79076;SDS011;68477;42.698;23.342;2023-04-22T11:32:42;6.65;;;2.38;;
79076;SDS011;68477;42.698;23.342;2023-04-22T11:35:10;3.80;;;2.20;;
79076;SDS011;68477;42.698;23.342;2023-04-22T11:40:17;4.35;;;2.63;;
79076;SDS011;68477;42.698;23.342;2023-04-22T11:42:44;3.47;;;2.20;;
79076;SDS011;68477;42.698;23.342;2023-04-22T11:45:10;4.95;;;2.45;;
79076;SDS011;68477;42.698;23.342;2023-04-22T11:47:37;5.13;;;2.67;;
79076;SDS011;68477;42.698;23.342;2023-04-22T11:50:05;5.72;;;2.55;;
79076;SDS011;68477;42.698;23.342;2023-04-22T11:53:11;4.70;;;3.00;;
79076;SDS011;68477;42.698;23.342;2023-04-22T11:55:27;8.55;;;2.83;;
79076;SDS011;68477;42.698;23.342;2023-04-22T12:00:23;4.53;;;2.70;;
79076;SDS011;68477;42.698;23.342;2023-04-22T12:03:03;3.55;;;2.75;;
79076;SDS011;68477;42.698;23.342;2023-04-22T12:05:32;4.57;;;2.75;;
79076;SDS011;68477;42.698;23.342;2023-04-22T12:08:05;3.75;;;2.63;;
79076;SDS011;68477;42.698;23.342;2023-04-22T12:10:37;8.68;;;4.93;;
79076;SDS011;68477;42.698;23.342;2023-04-22T12:13:24;7.32;;;3.60;;
79076;SDS011;68477;42.698;23.342;2023-04-22T12:15:52;4.78;;;2.80;;
79076;SDS011;68477;42.698;23.342;2023-04-22T12:18:30;3.58;;;2.38;;
79076;SDS011;68477;42.698;23.342;2023-04-22T12:23:39;4.25;;;3.05;;
79076;SDS011;68477;42.698;23.342;2023-04-22T12:26:09;9.68;;;2.80;;
79076;SDS011;68477;42.698;23.342;2023-04-22T12:28:36;6.20;;;2.60;;
79076;SDS011;68477;42.698;23.342;2023-04-22T12:31:02;6.13;;;2.53;;
79076;SDS011;68477;42.698;23.342;2023-04-22T12:33:27;5.80;;;2.83;;
79076;SDS011;68477;42.698;23.342;2023-04-22T12:35:53;7.25;;;3.80;;
79076;SDS011;68477;42.698;23.342;2023-04-22T12:38:19;12.05;;;3.20;;
79076;SDS011;68477;42.698;23.342;2023-04-22T12:40:45;4.25;;;2.70;;
79076;SDS011;68477;42.698;23.342;2023-04-22T12:43:10;5.13;;;2.90;;
79076;SDS011;68477;42.698;23.342;2023-04-22T12:45:36;5.95;;;2.30;;
79076;SDS011;68477;42.698;23.342;2023-04-22T12:48:01;4.68;;;2.63;;
79076;SDS011;68477;42.698;23.342;2023-04-22T12:50:27;5.88;;;2.60;;
79076;SDS011;68477;42.698;23.342;2023-04-22T12:52:53;4.65;;;2.40;;
79076;SDS011;68477;42.698;23.342;2023-04-22T12:55:19;3.80;;;2.70;;
79076;SDS011;68477;42.698;23.342;2023-04-22T12:57:46;4.78;;;2.65;;
79076;SDS011;68477;42.698;23.342;2023-04-22T13:00:13;6.85;;;2.25;;
79076;SDS011;68477;42.698;23.342;2023-04-22T13:02:42;3.20;;;2.00;;
79076;SDS011;68477;42.698;23.342;2023-04-22T13:05:09;7.45;;;3.35;;
79076;SDS011;68477;42.698;23.342;2023-04-22T13:07:35;4.65;;;2.42;;
79076;SDS011;68477;42.698;23.342;2023-04-22T13:10:01;2.80;;;2.10;;
79076;SDS011;68477;42.698;23.342;2023-04-22T13:12:28;3.40;;;2.20;;
79076;SDS011;68477;42.698;23.342;2023-04-22T13:14:54;5.25;;;2.20;;
79076;SDS011;68477;42.698;23.342;2023-04-22T13:17:20;4.28;;;1.88;;
79076;SDS011;68477;42.698;23.342;2023-04-22T13:19:46;2.90;;;2.28;;
79076;SDS011;68477;42.698;23.342;2023-04-22T13:22:12;4.35;;;1.85;;
79076;SDS011;68477;42.698;23.342;2023-04-22T13:24:37;4.57;;;2.28;;
79076;SDS011;68477;42.698;23.342;2023-04-22T13:27:04;7.20;;;2.33;;
79076;SDS011;68477;42.698;23.342;2023-04-22T13:29:34;2.72;;;1.80;;
79076;SDS011;68477;42.698;23.342;2023-04-22T13:32:00;4.47;;;2.45;;
79076;SDS011;68477;42.698;23.342;2023-04-22T13:34:26;4.28;;;2.30;;
79076;SDS011;68477;42.698;23.342;2023-04-22T13:36:51;4.88;;;2.50;;
79076;SDS011;68477;42.698;23.342;2023-04-22T13:39:17;4.93;;;2.25;;
79076;SDS011;68477;42.698;23.342;2023-04-22T13:41:45;3.03;;;2.00;;
79076;SDS011;68477;42.698;23.342;2023-04-22T13:44:11;2.95;;;1.92;;
79076;SDS011;68477;42.698;23.342;2023-04-22T13:46:39;7.95;;;2.15;;
79076;SDS011;68477;42.698;23.342;2023-04-22T13:49:06;5.75;;;2.03;;
79076;SDS011;68477;42.698;23.342;2023-04-22T13:51:32;4.95;;;2.30;;
79076;SDS011;68477;42.698;23.342;2023-04-22T13:53:58;3.47;;;1.90;;
79076;SDS011;68477;42.698;23.342;2023-04-22T13:56:26;3.42;;;2.28;;
79076;SDS011;68477;42.698;23.342;2023-04-22T13:58:52;3.60;;;2.28;;
79076;SDS011;68477;42.698;23.342;2023-04-22T14:01:18;4.53;;;2.50;;
79076;SDS011;68477;42.698;23.342;2023-04-22T14:03:44;4.88;;;2.22;;
79076;SDS011;68477;42.698;23.342;2023-04-22T14:06:10;3.63;;;2.08;;
79076;SDS011;68477;42.698;23.342;2023-04-22T14:08:36;2.83;;;2.10;;
79076;SDS011;68477;42.698;23.342;2023-04-22T14:11:03;3.92;;;1.98;;
79076;SDS011;68477;42.698;23.342;2023-04-22T14:13:30;5.18;;;2.30;;
79076;SDS011;68477;42.698;23.342;2023-04-22T14:15:56;4.00;;;2.58;;
79076;SDS011;68477;42.698;23.342;2023-04-22T14:18:22;3.85;;;2.50;;
79076;SDS011;68477;42.698;23.342;2023-04-22T14:20:48;5.00;;;2.60;;
79076;SDS011;68477;42.698;23.342;2023-04-22T14:23:16;4.63;;;2.53;;
79076;SDS011;68477;42.698;23.342;2023-04-22T14:25:43;5.82;;;2.72;;
79076;SDS011;68477;42.698;23.342;2023-04-22T14:28:10;3.13;;;2.20;;
79076;SDS011;68477;42.698;23.342;2023-04-22T14:30:36;4.30;;;2.35;;
79076;SDS011;68477;42.698;23.342;2023-04-22T14:33:01;7.45;;;2.55;;
79076;SDS011;68477;42.698;23.342;2023-04-22T14:35:30;4.70;;;2.70;;
79076;SDS011;68477;42.698;23.342;2023-04-22T14:37:58;10.38;;;2.75;;